< < Back
Terminal Aerodrome Forecast


Current Version              Previous Versions:   1  2  3  4  5  6  7  8  9  

Terminal Aerodrome Forecast

562
FTUS44 KHUN 312320
TAFHSV
TAF
KHSV 312320Z 0100/0124 VRB03KT P6SM SCT120 BKN250
     FM011400 VRB04KT P6SM SCT070 BKN120
     FM011800 12005KT P6SM VCSH SCT040 BKN070=

Latest METAR

913
SAUS80 KWBC 011100 RRG
MTRHSV
METAR KHSV 011053Z 10003KT 7SM BKN170 20/18 A3006 RMK AO2 SLP171 FIRST
T02000178


USA.gov is the U.S. government's official web portal to all federal, state and local government web resources and services.